sensor_id;sensor_type;location;lat;lon;timestamp;P1;durP1;ratioP1;P2;durP2;ratioP2
39958;SDS011;25639;53.634;9.880;2023-03-23T00:02:19;16.70;;;8.48;;
39958;SDS011;25639;53.634;9.880;2023-03-23T00:04:51;19.08;;;9.43;;
39958;SDS011;25639;53.634;9.880;2023-03-23T00:07:18;16.92;;;9.10;;
39958;SDS011;25639;53.634;9.880;2023-03-23T00:09:46;19.08;;;10.60;;
39958;SDS011;25639;53.634;9.880;2023-03-23T00:12:17;18.15;;;10.88;;
39958;SDS011;25639;53.634;9.880;2023-03-23T00:14:43;20.92;;;11.38;;
39958;SDS011;25639;53.634;9.880;2023-03-23T00:17:08;21.73;;;10.95;;
39958;SDS011;25639;53.634;9.880;2023-03-23T00:19:36;23.55;;;12.93;;
39958;SDS011;25639;53.634;9.880;2023-03-23T00:22:10;23.52;;;12.35;;
39958;SDS011;25639;53.634;9.880;2023-03-23T00:24:40;25.30;;;12.27;;
39958;SDS011;25639;53.634;9.880;2023-03-23T00:27:06;23.67;;;12.07;;
39958;SDS011;25639;53.634;9.880;2023-03-23T00:29:33;21.45;;;12.45;;
39958;SDS011;25639;53.634;9.880;2023-03-23T00:31:59;24.48;;;13.63;;
39958;SDS011;25639;53.634;9.880;2023-03-23T00:34:24;24.70;;;13.85;;
39958;SDS011;25639;53.634;9.880;2023-03-23T00:36:51;26.98;;;14.88;;
39958;SDS011;25639;53.634;9.880;2023-03-23T00:39:21;24.33;;;13.82;;
39958;SDS011;25639;53.634;9.880;2023-03-23T00:41:49;24.30;;;14.50;;
39958;SDS011;25639;53.634;9.880;2023-03-23T00:44:15;25.15;;;15.68;;
39958;SDS011;25639;53.634;9.880;2023-03-23T00:46:48;24.92;;;15.05;;
39958;SDS011;25639;53.634;9.880;2023-03-23T00:49:15;24.73;;;15.90;;
39958;SDS011;25639;53.634;9.880;2023-03-23T00:51:42;28.48;;;15.60;;
39958;SDS011;25639;53.634;9.880;2023-03-23T00:54:08;27.08;;;16.02;;
39958;SDS011;25639;53.634;9.880;2023-03-23T00:56:34;25.95;;;16.13;;
39958;SDS011;25639;53.634;9.880;2023-03-23T00:58:59;26.27;;;17.25;;
39958;SDS011;25639;53.634;9.880;2023-03-23T01:01:25;26.77;;;16.65;;
39958;SDS011;25639;53.634;9.880;2023-03-23T01:03:50;27.13;;;17.13;;
39958;SDS011;25639;53.634;9.880;2023-03-23T01:06:15;25.05;;;16.58;;
39958;SDS011;25639;53.634;9.880;2023-03-23T01:08:41;28.45;;;17.58;;
39958;SDS011;25639;53.634;9.880;2023-03-23T01:11:11;27.63;;;17.08;;
39958;SDS011;25639;53.634;9.880;2023-03-23T01:13:38;26.90;;;17.17;;
39958;SDS011;25639;53.634;9.880;2023-03-23T01:16:05;29.88;;;18.20;;
39958;SDS011;25639;53.634;9.880;2023-03-23T01:18:30;29.85;;;18.23;;
39958;SDS011;25639;53.634;9.880;2023-03-23T01:20:56;29.98;;;17.50;;
39958;SDS011;25639;53.634;9.880;2023-03-23T01:23:21;30.60;;;17.92;;
39958;SDS011;25639;53.634;9.880;2023-03-23T01:25:46;30.75;;;19.10;;
39958;SDS011;25639;53.634;9.880;2023-03-23T01:28:11;28.98;;;19.00;;
39958;SDS011;25639;53.634;9.880;2023-03-23T01:30:37;30.42;;;18.80;;
39958;SDS011;25639;53.634;9.880;2023-03-23T01:33:02;29.27;;;19.00;;
39958;SDS011;25639;53.634;9.880;2023-03-23T01:35:28;31.90;;;19.55;;
39958;SDS011;25639;53.634;9.880;2023-03-23T01:37:53;33.72;;;19.02;;
39958;SDS011;25639;53.634;9.880;2023-03-23T01:40:19;32.33;;;19.33;;
39958;SDS011;25639;53.634;9.880;2023-03-23T01:42:44;31.55;;;19.30;;
39958;SDS011;25639;53.634;9.880;2023-03-23T01:47:45;31.55;;;19.00;;
39958;SDS011;25639;53.634;9.880;2023-03-23T01:50:12;34.67;;;19.95;;
39958;SDS011;25639;53.634;9.880;2023-03-23T01:52:37;34.90;;;20.10;;
39958;SDS011;25639;53.634;9.880;2023-03-23T01:55:04;32.13;;;20.17;;
39958;SDS011;25639;53.634;9.880;2023-03-23T01:57:30;34.08;;;21.20;;
39958;SDS011;25639;53.634;9.880;2023-03-23T01:59:57;32.83;;;20.73;;
39958;SDS011;25639;53.634;9.880;2023-03-23T02:02:32;39.50;;;21.73;;
39958;SDS011;25639;53.634;9.880;2023-03-23T02:05:01;38.20;;;22.05;;
39958;SDS011;25639;53.634;9.880;2023-03-23T02:07:34;35.92;;;21.98;;
39958;SDS011;25639;53.634;9.880;2023-03-23T02:10:00;36.28;;;22.08;;
39958;SDS011;25639;53.634;9.880;2023-03-23T02:12:25;35.65;;;22.17;;
39958;SDS011;25639;53.634;9.880;2023-03-23T02:14:51;37.20;;;22.40;;
39958;SDS011;25639;53.634;9.880;2023-03-23T02:31:40;34.67;;;20.73;;
39958;SDS011;25639;53.634;9.880;2023-03-23T02:36:44;31.40;;;19.20;;
39958;SDS011;25639;53.634;9.880;2023-03-23T02:39:22;34.78;;;20.25;;
39958;SDS011;25639;53.634;9.880;2023-03-23T02:42:06;31.00;;;20.00;;
39958;SDS011;25639;53.634;9.880;2023-03-23T02:44:35;31.48;;;19.50;;
39958;SDS011;25639;53.634;9.880;2023-03-23T02:47:05;31.52;;;19.13;;
39958;SDS011;25639;53.634;9.880;2023-03-23T02:49:36;30.95;;;20.17;;
39958;SDS011;25639;53.634;9.880;2023-03-23T02:52:08;32.38;;;20.02;;
39958;SDS011;25639;53.634;9.880;2023-03-23T02:57:05;32.20;;;19.33;;
39958;SDS011;25639;53.634;9.880;2023-03-23T02:59:32;34.38;;;20.67;;
39958;SDS011;25639;53.634;9.880;2023-03-23T03:01:59;34.55;;;21.23;;
39958;SDS011;25639;53.634;9.880;2023-03-23T03:04:28;33.30;;;19.95;;
39958;SDS011;25639;53.634;9.880;2023-03-23T03:09:38;32.50;;;19.67;;
39958;SDS011;25639;53.634;9.880;2023-03-23T03:12:19;34.13;;;20.77;;
39958;SDS011;25639;53.634;9.880;2023-03-23T03:15:06;34.22;;;20.38;;
39958;SDS011;25639;53.634;9.880;2023-03-23T03:17:41;33.63;;;20.40;;
39958;SDS011;25639;53.634;9.880;2023-03-23T03:20:10;32.58;;;19.95;;
39958;SDS011;25639;53.634;9.880;2023-03-23T03:22:39;31.92;;;19.45;;
39958;SDS011;25639;53.634;9.880;2023-03-23T03:25:09;33.35;;;20.10;;
39958;SDS011;25639;53.634;9.880;2023-03-23T03:27:40;29.08;;;20.05;;
39958;SDS011;25639;53.634;9.880;2023-03-23T03:30:11;32.10;;;19.23;;
39958;SDS011;25639;53.634;9.880;2023-03-23T03:32:48;38.55;;;21.30;;
39958;SDS011;25639;53.634;9.880;2023-03-23T03:35:18;32.90;;;20.55;;
39958;SDS011;25639;53.634;9.880;2023-03-23T03:37:46;34.20;;;21.33;;
39958;SDS011;25639;53.634;9.880;2023-03-23T03:40:13;33.95;;;20.10;;
39958;SDS011;25639;53.634;9.880;2023-03-23T03:42:41;29.08;;;18.85;;
39958;SDS011;25639;53.634;9.880;2023-03-23T03:45:09;30.55;;;18.98;;
39958;SDS011;25639;53.634;9.880;2023-03-23T03:47:36;32.55;;;19.92;;
39958;SDS011;25639;53.634;9.880;2023-03-23T03:50:02;29.85;;;19.98;;
39958;SDS011;25639;53.634;9.880;2023-03-23T03:52:28;31.63;;;20.10;;
39958;SDS011;25639;53.634;9.880;2023-03-23T03:54:53;32.72;;;19.77;;
39958;SDS011;25639;53.634;9.880;2023-03-23T03:57:19;28.00;;;19.30;;
39958;SDS011;25639;53.634;9.880;2023-03-23T03:59:44;27.33;;;18.13;;
39958;SDS011;25639;53.634;9.880;2023-03-23T04:02:10;26.23;;;17.40;;
39958;SDS011;25639;53.634;9.880;2023-03-23T04:04:38;27.58;;;18.15;;
39958;SDS011;25639;53.634;9.880;2023-03-23T04:07:04;27.10;;;18.35;;
39958;SDS011;25639;53.634;9.880;2023-03-23T04:09:30;27.25;;;17.25;;
39958;SDS011;25639;53.634;9.880;2023-03-23T04:11:56;27.33;;;18.35;;
39958;SDS011;25639;53.634;9.880;2023-03-23T04:14:21;30.63;;;18.08;;
39958;SDS011;25639;53.634;9.880;2023-03-23T04:16:46;28.30;;;17.55;;
39958;SDS011;25639;53.634;9.880;2023-03-23T04:19:12;27.38;;;18.98;;
39958;SDS011;25639;53.634;9.880;2023-03-23T04:21:37;27.52;;;17.00;;
39958;SDS011;25639;53.634;9.880;2023-03-23T04:24:03;34.13;;;18.55;;
39958;SDS011;25639;53.634;9.880;2023-03-23T04:26:28;28.60;;;18.02;;
39958;SDS011;25639;53.634;9.880;2023-03-23T04:28:55;26.92;;;17.58;;
39958;SDS011;25639;53.634;9.880;2023-03-23T04:31:21;24.35;;;16.90;;
39958;SDS011;25639;53.634;9.880;2023-03-23T04:33:50;29.70;;;17.85;;
39958;SDS011;25639;53.634;9.880;2023-03-23T04:36:17;27.20;;;17.08;;
39958;SDS011;25639;53.634;9.880;2023-03-23T04:38:43;30.25;;;17.23;;
39958;SDS011;25639;53.634;9.880;2023-03-23T04:41:08;27.77;;;16.15;;
39958;SDS011;25639;53.634;9.880;2023-03-23T04:43:33;26.88;;;17.38;;
39958;SDS011;25639;53.634;9.880;2023-03-23T04:46:06;28.02;;;17.65;;
39958;SDS011;25639;53.634;9.880;2023-03-23T04:48:33;31.75;;;18.63;;
39958;SDS011;25639;53.634;9.880;2023-03-23T04:51:00;27.90;;;16.65;;
39958;SDS011;25639;53.634;9.880;2023-03-23T04:53:28;25.55;;;16.70;;
39958;SDS011;25639;53.634;9.880;2023-03-23T04:55:54;26.13;;;17.17;;
39958;SDS011;25639;53.634;9.880;2023-03-23T04:58:20;32.97;;;18.20;;
39958;SDS011;25639;53.634;9.880;2023-03-23T05:00:45;23.80;;;16.63;;
39958;SDS011;25639;53.634;9.880;2023-03-23T05:03:15;29.70;;;17.23;;
39958;SDS011;25639;53.634;9.880;2023-03-23T05:05:42;25.92;;;16.92;;
39958;SDS011;25639;53.634;9.880;2023-03-23T05:08:08;26.20;;;17.95;;
39958;SDS011;25639;53.634;9.880;2023-03-23T05:10:33;26.23;;;17.27;;
39958;SDS011;25639;53.634;9.880;2023-03-23T05:12:58;26.55;;;18.15;;
39958;SDS011;25639;53.634;9.880;2023-03-23T05:15:24;27.15;;;18.50;;
39958;SDS011;25639;53.634;9.880;2023-03-23T05:17:51;28.92;;;18.00;;
39958;SDS011;25639;53.634;9.880;2023-03-23T05:20:16;31.40;;;18.83;;
39958;SDS011;25639;53.634;9.880;2023-03-23T05:22:45;29.48;;;18.08;;
39958;SDS011;25639;53.634;9.880;2023-03-23T05:25:15;28.52;;;18.25;;
39958;SDS011;25639;53.634;9.880;2023-03-23T05:27:44;30.13;;;18.83;;
39958;SDS011;25639;53.634;9.880;2023-03-23T05:30:13;28.35;;;18.52;;
39958;SDS011;25639;53.634;9.880;2023-03-23T05:32:41;24.20;;;17.75;;
39958;SDS011;25639;53.634;9.880;2023-03-23T05:35:10;27.65;;;18.38;;
39958;SDS011;25639;53.634;9.880;2023-03-23T05:37:37;30.80;;;18.58;;
39958;SDS011;25639;53.634;9.880;2023-03-23T05:40:03;26.30;;;18.05;;
39958;SDS011;25639;53.634;9.880;2023-03-23T05:42:34;24.50;;;17.17;;
39958;SDS011;25639;53.634;9.880;2023-03-23T05:45:04;25.15;;;16.80;;
39958;SDS011;25639;53.634;9.880;2023-03-23T05:47:30;24.85;;;16.20;;
39958;SDS011;25639;53.634;9.880;2023-03-23T05:49:56;27.73;;;17.63;;
39958;SDS011;25639;53.634;9.880;2023-03-23T05:52:21;25.83;;;16.83;;
39958;SDS011;25639;53.634;9.880;2023-03-23T05:54:48;25.25;;;17.35;;
39958;SDS011;25639;53.634;9.880;2023-03-23T05:57:14;25.00;;;16.27;;
39958;SDS011;25639;53.634;9.880;2023-03-23T05:59:39;26.25;;;15.73;;
39958;SDS011;25639;53.634;9.880;2023-03-23T06:02:05;23.02;;;14.18;;
39958;SDS011;25639;53.634;9.880;2023-03-23T06:04:30;26.30;;;14.63;;
39958;SDS011;25639;53.634;9.880;2023-03-23T06:06:58;25.67;;;15.25;;
39958;SDS011;25639;53.634;9.880;2023-03-23T06:09:24;24.77;;;14.82;;
39958;SDS011;25639;53.634;9.880;2023-03-23T06:11:50;24.95;;;14.52;;
39958;SDS011;25639;53.634;9.880;2023-03-23T06:14:15;25.40;;;13.73;;
39958;SDS011;25639;53.634;9.880;2023-03-23T06:16:42;22.30;;;14.23;;
39958;SDS011;25639;53.634;9.880;2023-03-23T06:19:07;20.55;;;13.88;;
39958;SDS011;25639;53.634;9.880;2023-03-23T06:21:32;23.80;;;14.25;;
39958;SDS011;25639;53.634;9.880;2023-03-23T06:23:58;21.15;;;12.73;;
39958;SDS011;25639;53.634;9.880;2023-03-23T06:26:26;21.17;;;13.18;;
39958;SDS011;25639;53.634;9.880;2023-03-23T06:28:54;23.08;;;13.57;;
39958;SDS011;25639;53.634;9.880;2023-03-23T06:31:20;20.45;;;12.85;;
39958;SDS011;25639;53.634;9.880;2023-03-23T06:33:46;21.17;;;12.30;;
39958;SDS011;25639;53.634;9.880;2023-03-23T06:36:12;21.48;;;11.50;;
39958;SDS011;25639;53.634;9.880;2023-03-23T06:38:37;20.90;;;11.05;;
39958;SDS011;25639;53.634;9.880;2023-03-23T06:41:03;19.10;;;10.02;;
39958;SDS011;25639;53.634;9.880;2023-03-23T06:43:29;20.60;;;10.10;;
39958;SDS011;25639;53.634;9.880;2023-03-23T06:45:54;15.65;;;9.63;;
39958;SDS011;25639;53.634;9.880;2023-03-23T06:48:20;14.88;;;9.63;;
39958;SDS011;25639;53.634;9.880;2023-03-23T06:50:45;18.55;;;9.73;;
39958;SDS011;25639;53.634;9.880;2023-03-23T06:53:11;16.75;;;9.65;;
39958;SDS011;25639;53.634;9.880;2023-03-23T06:55:37;17.20;;;8.82;;
39958;SDS011;25639;53.634;9.880;2023-03-23T06:58:04;17.15;;;8.38;;
39958;SDS011;25639;53.634;9.880;2023-03-23T07:00:31;16.95;;;9.10;;
39958;SDS011;25639;53.634;9.880;2023-03-23T07:02:57;13.82;;;8.30;;
39958;SDS011;25639;53.634;9.880;2023-03-23T07:05:22;23.58;;;8.90;;
39958;SDS011;25639;53.634;9.880;2023-03-23T07:07:47;14.40;;;7.97;;
39958;SDS011;25639;53.634;9.880;2023-03-23T07:10:13;10.40;;;7.10;;
39958;SDS011;25639;53.634;9.880;2023-03-23T07:12:38;10.68;;;6.85;;
39958;SDS011;25639;53.634;9.880;2023-03-23T07:15:05;11.98;;;6.32;;
39958;SDS011;25639;53.634;9.880;2023-03-23T07:17:32;11.27;;;6.15;;
39958;SDS011;25639;53.634;9.880;2023-03-23T07:19:58;10.15;;;6.07;;
39958;SDS011;25639;53.634;9.880;2023-03-23T07:22:23;14.85;;;7.13;;
39958;SDS011;25639;53.634;9.880;2023-03-23T07:24:48;12.43;;;6.45;;
39958;SDS011;25639;53.634;9.880;2023-03-23T07:27:14;9.65;;;6.30;;
39958;SDS011;25639;53.634;9.880;2023-03-23T07:29:40;11.50;;;6.20;;
39958;SDS011;25639;53.634;9.880;2023-03-23T07:32:06;14.85;;;6.63;;
39958;SDS011;25639;53.634;9.880;2023-03-23T07:34:35;9.57;;;5.95;;
39958;SDS011;25639;53.634;9.880;2023-03-23T07:37:02;12.35;;;6.05;;
39958;SDS011;25639;53.634;9.880;2023-03-23T07:39:27;10.45;;;6.10;;
39958;SDS011;25639;53.634;9.880;2023-03-23T07:41:53;14.07;;;7.00;;
39958;SDS011;25639;53.634;9.880;2023-03-23T07:44:18;15.05;;;6.32;;
39958;SDS011;25639;53.634;9.880;2023-03-23T07:46:43;15.57;;;6.60;;
39958;SDS011;25639;53.634;9.880;2023-03-23T07:49:09;13.82;;;5.90;;
39958;SDS011;25639;53.634;9.880;2023-03-23T07:51:35;13.38;;;6.60;;
39958;SDS011;25639;53.634;9.880;2023-03-23T07:54:03;14.43;;;6.97;;
39958;SDS011;25639;53.634;9.880;2023-03-23T07:56:29;13.82;;;5.35;;
39958;SDS011;25639;53.634;9.880;2023-03-23T07:58:54;11.77;;;5.30;;
39958;SDS011;25639;53.634;9.880;2023-03-23T08:01:20;3.55;;;1.75;;
39958;SDS011;25639;53.634;9.880;2023-03-23T08:03:46;7.00;;;2.35;;
39958;SDS011;25639;53.634;9.880;2023-03-23T08:06:12;5.43;;;1.70;;
39958;SDS011;25639;53.634;9.880;2023-03-23T08:08:38;5.97;;;1.42;;
39958;SDS011;25639;53.634;9.880;2023-03-23T08:11:05;4.88;;;1.77;;
39958;SDS011;25639;53.634;9.880;2023-03-23T08:13:31;14.50;;;1.85;;
39958;SDS011;25639;53.634;9.880;2023-03-23T08:15:58;3.92;;;1.33;;
39958;SDS011;25639;53.634;9.880;2023-03-23T08:18:23;3.88;;;1.80;;
39958;SDS011;25639;53.634;9.880;2023-03-23T08:20:49;5.82;;;1.92;;
39958;SDS011;25639;53.634;9.880;2023-03-23T08:23:15;4.55;;;2.22;;
39958;SDS011;25639;53.634;9.880;2023-03-23T08:25:41;7.18;;;1.40;;
39958;SDS011;25639;53.634;9.880;2023-03-23T08:28:08;5.25;;;1.40;;
39958;SDS011;25639;53.634;9.880;2023-03-23T08:30:34;6.95;;;1.90;;
39958;SDS011;25639;53.634;9.880;2023-03-23T08:33:02;2.95;;;1.50;;
39958;SDS011;25639;53.634;9.880;2023-03-23T08:35:29;4.47;;;2.05;;
39958;SDS011;25639;53.634;9.880;2023-03-23T08:37:55;5.03;;;2.10;;
39958;SDS011;25639;53.634;9.880;2023-03-23T08:40:22;10.10;;;3.10;;
39958;SDS011;25639;53.634;9.880;2023-03-23T08:42:49;5.88;;;2.30;;
39958;SDS011;25639;53.634;9.880;2023-03-23T08:45:17;9.65;;;2.38;;
39958;SDS011;25639;53.634;9.880;2023-03-23T08:47:45;8.02;;;2.67;;
39958;SDS011;25639;53.634;9.880;2023-03-23T08:50:15;7.97;;;2.33;;
39958;SDS011;25639;53.634;9.880;2023-03-23T08:52:41;8.85;;;2.78;;
39958;SDS011;25639;53.634;9.880;2023-03-23T08:55:08;5.32;;;2.15;;
39958;SDS011;25639;53.634;9.880;2023-03-23T08:57:34;5.28;;;2.10;;
39958;SDS011;25639;53.634;9.880;2023-03-23T09:00:01;11.82;;;4.50;;
39958;SDS011;25639;53.634;9.880;2023-03-23T09:02:42;11.65;;;3.40;;
39958;SDS011;25639;53.634;9.880;2023-03-23T09:05:09;10.77;;;2.97;;
39958;SDS011;25639;53.634;9.880;2023-03-23T09:07:40;7.50;;;2.75;;
39958;SDS011;25639;53.634;9.880;2023-03-23T09:10:06;5.88;;;2.78;;
39958;SDS011;25639;53.634;9.880;2023-03-23T09:12:33;7.13;;;2.92;;
39958;SDS011;25639;53.634;9.880;2023-03-23T09:14:58;8.93;;;3.10;;
39958;SDS011;25639;53.634;9.880;2023-03-23T09:17:23;7.40;;;3.03;;
39958;SDS011;25639;53.634;9.880;2023-03-23T09:19:49;9.68;;;2.97;;
39958;SDS011;25639;53.634;9.880;2023-03-23T09:22:15;9.20;;;2.70;;
39958;SDS011;25639;53.634;9.880;2023-03-23T09:24:44;8.80;;;3.45;;
39958;SDS011;25639;53.634;9.880;2023-03-23T09:27:11;5.82;;;2.80;;
39958;SDS011;25639;53.634;9.880;2023-03-23T09:29:36;12.95;;;3.42;;
39958;SDS011;25639;53.634;9.880;2023-03-23T09:32:01;9.68;;;2.97;;
39958;SDS011;25639;53.634;9.880;2023-03-23T09:34:27;10.95;;;2.60;;
39958;SDS011;25639;53.634;9.880;2023-03-23T09:36:54;10.35;;;2.97;;
39958;SDS011;25639;53.634;9.880;2023-03-23T09:39:19;9.27;;;3.15;;
39958;SDS011;25639;53.634;9.880;2023-03-23T09:44:46;15.50;;;4.13;;
39958;SDS011;25639;53.634;9.880;2023-03-23T09:48:02;16.67;;;3.67;;
39958;SDS011;25639;53.634;9.880;2023-03-23T09:50:32;16.83;;;3.85;;
39958;SDS011;25639;53.634;9.880;2023-03-23T09:53:14;10.98;;;2.72;;
39958;SDS011;25639;53.634;9.880;2023-03-23T09:55:47;12.60;;;2.58;;
39958;SDS011;25639;53.634;9.880;2023-03-23T10:01:06;20.85;;;2.72;;
39958;SDS011;25639;53.634;9.880;2023-03-23T10:03:42;14.60;;;2.42;;
39958;SDS011;25639;53.634;9.880;2023-03-23T10:06:09;14.15;;;2.40;;
39958;SDS011;25639;53.634;9.880;2023-03-23T10:08:38;11.10;;;2.45;;
39958;SDS011;25639;53.634;9.880;2023-03-23T10:14:15;13.15;;;2.92;;
39958;SDS011;25639;53.634;9.880;2023-03-23T10:17:10;15.55;;;2.72;;
39958;SDS011;25639;53.634;9.880;2023-03-23T10:19:43;16.20;;;2.70;;
39958;SDS011;25639;53.634;9.880;2023-03-23T10:22:16;10.80;;;2.83;;
39958;SDS011;25639;53.634;9.880;2023-03-23T10:25:34;13.05;;;2.75;;
39958;SDS011;25639;53.634;9.880;2023-03-23T10:32:53;19.57;;;2.23;;
39958;SDS011;25639;53.634;9.880;2023-03-23T10:37:57;15.73;;;2.38;;
39958;SDS011;25639;53.634;9.880;2023-03-23T10:40:27;9.68;;;2.67;;
39958;SDS011;25639;53.634;9.880;2023-03-23T10:42:54;12.65;;;2.47;;
39958;SDS011;25639;53.634;9.880;2023-03-23T10:45:26;17.35;;;3.13;;
39958;SDS011;25639;53.634;9.880;2023-03-23T10:50:33;16.27;;;2.10;;
39958;SDS011;25639;53.634;9.880;2023-03-23T10:53:00;10.18;;;2.38;;
39958;SDS011;25639;53.634;9.880;2023-03-23T10:55:37;12.80;;;3.10;;
39958;SDS011;25639;53.634;9.880;2023-03-23T10:58:11;15.75;;;2.60;;
39958;SDS011;25639;53.634;9.880;2023-03-23T11:00:48;12.77;;;2.75;;
39958;SDS011;25639;53.634;9.880;2023-03-23T11:05:48;15.60;;;3.15;;
39958;SDS011;25639;53.634;9.880;2023-03-23T11:08:19;13.00;;;2.72;;
39958;SDS011;25639;53.634;9.880;2023-03-23T11:10:48;19.42;;;3.25;;
39958;SDS011;25639;53.634;9.880;2023-03-23T11:13:16;14.88;;;2.90;;
39958;SDS011;25639;53.634;9.880;2023-03-23T11:15:45;16.33;;;3.05;;
39958;SDS011;25639;53.634;9.880;2023-03-23T11:18:12;16.42;;;3.08;;
39958;SDS011;25639;53.634;9.880;2023-03-23T11:20:44;13.88;;;2.60;;
39958;SDS011;25639;53.634;9.880;2023-03-23T11:23:24;16.80;;;3.05;;
39958;SDS011;25639;53.634;9.880;2023-03-23T11:28:57;19.10;;;2.50;;
39958;SDS011;25639;53.634;9.880;2023-03-23T11:31:30;19.95;;;3.13;;
39958;SDS011;25639;53.634;9.880;2023-03-23T11:37:27;18.85;;;3.13;;
39958;SDS011;25639;53.634;9.880;2023-03-23T11:39:27;11.55;;;2.72;;
39958;SDS011;25639;53.634;9.880;2023-03-23T11:41:55;20.90;;;3.53;;
39958;SDS011;25639;53.634;9.880;2023-03-23T11:44:23;16.33;;;2.95;;
39958;SDS011;25639;53.634;9.880;2023-03-23T11:49:20;17.05;;;3.05;;
39958;SDS011;25639;53.634;9.880;2023-03-23T11:51:54;17.83;;;3.25;;
39958;SDS011;25639;53.634;9.880;2023-03-23T11:54:30;18.45;;;3.15;;
39958;SDS011;25639;53.634;9.880;2023-03-23T11:57:00;14.77;;;2.70;;
39958;SDS011;25639;53.634;9.880;2023-03-23T11:59:32;18.98;;;3.55;;
39958;SDS011;25639;53.634;9.880;2023-03-23T12:07:32;16.52;;;3.10;;
39958;SDS011;25639;53.634;9.880;2023-03-23T12:20:23;17.02;;;2.92;;
39958;SDS011;25639;53.634;9.880;2023-03-23T12:31:12;11.93;;;2.78;;
39958;SDS011;25639;53.634;9.880;2023-03-23T12:33:47;19.45;;;3.42;;
39958;SDS011;25639;53.634;9.880;2023-03-23T12:39:41;15.90;;;3.90;;
39958;SDS011;25639;53.634;9.880;2023-03-23T12:58:25;13.70;;;3.67;;
39958;SDS011;25639;53.634;9.880;2023-03-23T13:01:09;13.93;;;3.72;;
39958;SDS011;25639;53.634;9.880;2023-03-23T13:06:56;10.55;;;3.42;;
39958;SDS011;25639;53.634;9.880;2023-03-23T13:09:26;14.63;;;3.45;;
39958;SDS011;25639;53.634;9.880;2023-03-23T13:12:05;11.98;;;3.40;;
39958;SDS011;25639;53.634;9.880;2023-03-23T13:14:45;11.30;;;3.38;;
39958;SDS011;25639;53.634;9.880;2023-03-23T13:17:32;16.08;;;3.30;;
39958;SDS011;25639;53.634;9.880;2023-03-23T13:27:59;10.05;;;3.20;;
39958;SDS011;25639;53.634;9.880;2023-03-23T13:30:26;18.17;;;4.50;;
39958;SDS011;25639;53.634;9.880;2023-03-23T13:33:00;19.17;;;3.90;;
39958;SDS011;25639;53.634;9.880;2023-03-23T13:35:32;8.70;;;2.70;;
39958;SDS011;25639;53.634;9.880;2023-03-23T13:38:00;9.70;;;2.92;;
39958;SDS011;25639;53.634;9.880;2023-03-23T13:40:26;9.82;;;3.10;;
39958;SDS011;25639;53.634;9.880;2023-03-23T13:42:54;12.18;;;2.97;;
39958;SDS011;25639;53.634;9.880;2023-03-23T13:45:43;8.30;;;2.42;;
39958;SDS011;25639;53.634;9.880;2023-03-23T13:50:44;11.45;;;2.28;;
39958;SDS011;25639;53.634;9.880;2023-03-23T13:53:21;5.93;;;1.38;;
39958;SDS011;25639;53.634;9.880;2023-03-23T13:59:05;4.97;;;1.40;;
39958;SDS011;25639;53.634;9.880;2023-03-23T14:01:41;7.75;;;1.77;;
39958;SDS011;25639;53.634;9.880;2023-03-23T14:04:17;5.15;;;1.75;;
39958;SDS011;25639;53.634;9.880;2023-03-23T14:06:44;3.55;;;1.58;;
39958;SDS011;25639;53.634;9.880;2023-03-23T14:09:14;6.00;;;1.92;;
39958;SDS011;25639;53.634;9.880;2023-03-23T14:11:56;5.13;;;2.60;;
39958;SDS011;25639;53.634;9.880;2023-03-23T14:14:31;9.15;;;2.72;;
39958;SDS011;25639;53.634;9.880;2023-03-23T14:17:14;7.93;;;1.70;;
39958;SDS011;25639;53.634;9.880;2023-03-23T14:19:40;4.75;;;2.10;;
39958;SDS011;25639;53.634;9.880;2023-03-23T14:25:12;5.05;;;2.03;;
39958;SDS011;25639;53.634;9.880;2023-03-23T14:27:43;10.27;;;2.40;;
39958;SDS011;25639;53.634;9.880;2023-03-23T14:30:21;7.90;;;1.88;;
39958;SDS011;25639;53.634;9.880;2023-03-23T14:32:49;7.65;;;2.58;;
39958;SDS011;25639;53.634;9.880;2023-03-23T14:35:22;9.15;;;2.17;;
39958;SDS011;25639;53.634;9.880;2023-03-23T14:37:56;7.63;;;2.17;;
39958;SDS011;25639;53.634;9.880;2023-03-23T14:40:22;6.38;;;2.13;;
39958;SDS011;25639;53.634;9.880;2023-03-23T14:42:51;7.97;;;2.40;;
39958;SDS011;25639;53.634;9.880;2023-03-23T14:45:19;11.23;;;2.20;;
39958;SDS011;25639;53.634;9.880;2023-03-23T14:47:47;7.60;;;1.60;;
39958;SDS011;25639;53.634;9.880;2023-03-23T14:50:22;10.02;;;2.30;;
39958;SDS011;25639;53.634;9.880;2023-03-23T14:55:54;8.63;;;2.00;;
39958;SDS011;25639;53.634;9.880;2023-03-23T14:58:22;5.80;;;1.90;;
39958;SDS011;25639;53.634;9.880;2023-03-23T15:03:37;7.13;;;1.90;;
39958;SDS011;25639;53.634;9.880;2023-03-23T15:06:13;7.55;;;1.85;;
39958;SDS011;25639;53.634;9.880;2023-03-23T15:08:41;5.15;;;1.30;;
39958;SDS011;25639;53.634;9.880;2023-03-23T15:11:08;8.38;;;2.03;;
39958;SDS011;25639;53.634;9.880;2023-03-23T15:13:41;11.80;;;3.60;;
39958;SDS011;25639;53.634;9.880;2023-03-23T15:16:13;6.28;;;1.92;;
39958;SDS011;25639;53.634;9.880;2023-03-23T15:18:46;18.10;;;7.05;;
39958;SDS011;25639;53.634;9.880;2023-03-23T15:21:24;7.35;;;2.45;;
39958;SDS011;25639;53.634;9.880;2023-03-23T15:23:53;7.75;;;2.40;;
39958;SDS011;25639;53.634;9.880;2023-03-23T15:26:40;7.55;;;2.38;;
39958;SDS011;25639;53.634;9.880;2023-03-23T15:31:33;7.47;;;2.70;;
39958;SDS011;25639;53.634;9.880;2023-03-23T15:34:03;7.00;;;2.58;;
39958;SDS011;25639;53.634;9.880;2023-03-23T15:36:33;8.77;;;2.80;;
39958;SDS011;25639;53.634;9.880;2023-03-23T15:39:00;9.05;;;2.40;;
39958;SDS011;25639;53.634;9.880;2023-03-23T15:41:27;11.57;;;3.30;;
39958;SDS011;25639;53.634;9.880;2023-03-23T15:46:23;10.07;;;3.35;;
39958;SDS011;25639;53.634;9.880;2023-03-23T15:48:52;10.85;;;3.55;;
39958;SDS011;25639;53.634;9.880;2023-03-23T15:51:27;10.68;;;3.50;;
39958;SDS011;25639;53.634;9.880;2023-03-23T15:53:54;11.70;;;3.08;;
39958;SDS011;25639;53.634;9.880;2023-03-23T15:56:20;10.43;;;2.67;;
39958;SDS011;25639;53.634;9.880;2023-03-23T15:58:47;11.20;;;3.30;;
39958;SDS011;25639;53.634;9.880;2023-03-23T16:01:17;15.05;;;3.08;;
39958;SDS011;25639;53.634;9.880;2023-03-23T16:04:03;9.35;;;3.47;;
39958;SDS011;25639;53.634;9.880;2023-03-23T16:06:32;7.28;;;2.90;;
39958;SDS011;25639;53.634;9.880;2023-03-23T16:08:58;11.98;;;3.08;;
39958;SDS011;25639;53.634;9.880;2023-03-23T16:11:26;6.65;;;2.45;;
39958;SDS011;25639;53.634;9.880;2023-03-23T16:13:52;8.45;;;2.20;;
39958;SDS011;25639;53.634;9.880;2023-03-23T16:16:20;9.93;;;2.45;;
39958;SDS011;25639;53.634;9.880;2023-03-23T16:18:47;7.53;;;2.50;;
39958;SDS011;25639;53.634;9.880;2023-03-23T16:21:13;11.13;;;3.20;;
39958;SDS011;25639;53.634;9.880;2023-03-23T16:23:38;9.23;;;2.95;;
39958;SDS011;25639;53.634;9.880;2023-03-23T16:26:05;8.45;;;2.88;;
39958;SDS011;25639;53.634;9.880;2023-03-23T16:28:30;13.90;;;3.00;;
39958;SDS011;25639;53.634;9.880;2023-03-23T16:30:55;14.10;;;3.17;;
39958;SDS011;25639;53.634;9.880;2023-03-23T16:33:21;9.55;;;2.60;;
39958;SDS011;25639;53.634;9.880;2023-03-23T16:35:46;10.10;;;2.30;;
39958;SDS011;25639;53.634;9.880;2023-03-23T16:38:12;8.40;;;2.40;;
39958;SDS011;25639;53.634;9.880;2023-03-23T16:40:40;7.53;;;2.30;;
39958;SDS011;25639;53.634;9.880;2023-03-23T16:43:06;14.52;;;2.80;;
39958;SDS011;25639;53.634;9.880;2023-03-23T16:45:31;12.77;;;2.92;;
39958;SDS011;25639;53.634;9.880;2023-03-23T16:47:56;8.82;;;2.60;;
39958;SDS011;25639;53.634;9.880;2023-03-23T16:50:25;12.57;;;2.88;;